createdAt,value
2022-11-20T00:02:58.767Z,97272.25
2022-11-20T00:06:02.699Z,97266.16
2022-11-20T00:09:06.515Z,97246.19
2022-11-20T00:12:08.546Z,97260.84
2022-11-20T00:15:11.291Z,97278.09
2022-11-20T00:18:15.503Z,97282.53
2022-11-20T00:21:20.703Z,97267.00
2022-11-20T00:24:24.526Z,97261.88
2022-11-20T00:27:27.056Z,97270.63
2022-11-20T00:30:29.219Z,97283.97
2022-11-20T00:33:31.701Z,97293.69
2022-11-20T00:36:34.966Z,97285.13
2022-11-20T00:39:37.026Z,97290.13
2022-11-20T00:42:39.552Z,97295.88
2022-11-20T00:45:41.667Z,97297.44
2022-11-20T00:48:45.253Z,97309.47
2022-11-20T00:51:47.364Z,97306.88
2022-11-20T00:54:49.573Z,97314.53
2022-11-20T00:57:51.634Z,97308.53
2022-11-20T01:00:54.863Z,97308.53
2022-11-20T01:04:02.521Z,97305.03
2022-11-20T01:07:05.658Z,97310.16
2022-11-20T01:10:08.486Z,97312.69
2022-11-20T01:13:29.196Z,97315.28
2022-11-20T01:16:39.883Z,97305.69
2022-11-20T01:19:41.964Z,97311.78
2022-11-20T01:22:44.096Z,97304.91
2022-11-20T01:25:46.258Z,97300.56
2022-11-20T01:28:49.139Z,97308.28
2022-11-20T01:31:52.637Z,97305.53
2022-11-20T01:34:54.716Z,97308.97
2022-11-20T01:37:56.826Z,97312.34
2022-11-20T01:40:58.847Z,97311.50
2022-11-20T01:44:01.543Z,97308.00
2022-11-20T01:47:08.307Z,97302.75
2022-11-20T01:50:26.250Z,97302.81
2022-11-20T01:53:33.376Z,97302.09
2022-11-20T01:56:39.971Z,97324.59
2022-11-20T01:59:49.193Z,97310.88
2022-11-20T02:02:59.815Z,97312.63
2022-11-20T02:06:17.600Z,97310.78
2022-11-20T02:09:19.801Z,97314.22
2022-11-20T02:12:40.668Z,97307.28
2022-11-20T02:15:43.546Z,97321.09
2022-11-20T02:18:47.168Z,97317.53
2022-11-20T02:21:53.969Z,97314.03
2022-11-20T02:24:56.345Z,97311.50
2022-11-20T02:27:58.470Z,97313.19
2022-11-20T02:31:00.563Z,97317.53
2022-11-20T02:34:02.686Z,97314.81
2022-11-20T02:37:04.892Z,97311.22
2022-11-20T02:40:07.704Z,97308.56
2022-11-20T02:43:10.660Z,97310.19
2022-11-20T02:46:12.819Z,97311.88
2022-11-20T02:49:16.231Z,97300.56
2022-11-20T02:52:18.653Z,97298.81
2022-11-20T02:55:20.776Z,97293.69
2022-11-20T02:58:22.920Z,97298.88
2022-11-20T03:01:26.372Z,97295.38
2022-11-20T03:04:28.517Z,97297.81
2022-11-20T03:07:30.744Z,97278.75
2022-11-20T03:10:33.068Z,97268.31
2022-11-20T03:13:36.513Z,97266.56
2022-11-20T03:16:38.831Z,97265.72
2022-11-20T03:19:41.589Z,97262.28
2022-11-20T03:22:43.657Z,97256.25
2022-11-20T03:25:46.174Z,97261.44
2022-11-20T03:28:53.217Z,97266.63
2022-11-20T03:31:55.350Z,97265.78
2022-11-20T03:34:57.383Z,97263.25
2022-11-20T03:37:59.432Z,97265.84
2022-11-20T03:41:07.241Z,97259.75
2022-11-20T03:44:11.521Z,97257.16
2022-11-20T03:47:13.626Z,97257.31
2022-11-20T03:50:15.872Z,97246.97
2022-11-20T03:53:18.217Z,97246.97
2022-11-20T03:56:23.640Z,97240.03
2022-11-20T03:59:25.668Z,97243.44
2022-11-20T04:02:27.789Z,97242.63
2022-11-20T04:05:30.019Z,97230.47
2022-11-20T04:08:32.534Z,97221.78
2022-11-20T04:11:37.227Z,97229.50
2022-11-20T04:14:39.940Z,97228.72
2022-11-20T04:17:42.009Z,97231.25
2022-11-20T04:20:44.052Z,97227.69
2022-11-20T04:23:46.174Z,97218.28
2022-11-20T04:26:48.321Z,97220.09
2022-11-20T04:29:50.403Z,97219.28
2022-11-20T04:32:53.367Z,97214.91
2022-11-20T04:36:03.467Z,97207.06
2022-11-20T04:39:07.926Z,97196.69
2022-11-20T04:42:29.568Z,97193.19
2022-11-20T04:45:31.762Z,97180.22
2022-11-20T04:48:33.807Z,97178.72
2022-11-20T04:51:36.484Z,97188.38
2022-11-20T04:54:38.644Z,97189.34
2022-11-20T04:57:40.831Z,97193.75
2022-11-20T05:00:42.909Z,97193.84
2022-11-20T05:03:46.207Z,97201.69
2022-11-20T05:06:48.317Z,97197.41
2022-11-20T05:09:50.354Z,97191.31
2022-11-20T05:12:52.437Z,97197.34
2022-11-20T05:15:54.760Z,97198.19
2022-11-20T05:18:57.273Z,97197.28
2022-11-20T05:21:59.340Z,97198.94
2022-11-20T05:25:01.365Z,97198.88
2022-11-20T05:28:03.508Z,97191.88
2022-11-20T05:31:10.327Z,97204.75
2022-11-20T05:34:12.450Z,97213.50
2022-11-20T05:37:14.466Z,97201.44
2022-11-20T05:40:16.594Z,97204.75
2022-11-20T05:43:18.718Z,97212.41
2022-11-20T05:46:27.727Z,97202.78
2022-11-20T05:49:30.578Z,97215.25
2022-11-20T05:52:32.658Z,97201.69
2022-11-20T05:55:34.719Z,97199.03
2022-11-20T05:58:36.920Z,97191.16
2022-11-20T06:01:38.950Z,97207.53
2022-11-20T06:04:41.181Z,97208.38
2022-11-20T06:07:43.301Z,97211.06
2022-11-20T06:10:45.408Z,97214.69
2022-11-20T06:13:48.262Z,97218.13
2022-11-20T06:16:50.356Z,97228.38
2022-11-20T06:19:52.425Z,97219.66
2022-11-20T06:22:54.512Z,97223.94
2022-11-20T06:25:56.641Z,97233.34
2022-11-20T06:28:58.737Z,97233.28
2022-11-20T06:32:00.774Z,97233.16
2022-11-20T06:35:02.852Z,97239.88
2022-11-20T06:38:04.986Z,97237.22
2022-11-20T06:41:10.449Z,97253.47
2022-11-20T06:44:12.618Z,97256.91
2022-11-20T06:47:14.677Z,97255.84
2022-11-20T06:50:16.848Z,97260.97
2022-11-20T06:53:19.474Z,97273.88
2022-11-20T06:56:21.737Z,97273.81
2022-11-20T06:59:24.323Z,97271.09
2022-11-20T07:02:26.633Z,97277.09
2022-11-20T07:05:35.054Z,97277.09
2022-11-20T07:08:37.827Z,97276.19
2022-11-20T07:11:40.054Z,97279.69
2022-11-20T07:14:42.601Z,97283.13
2022-11-20T07:17:44.915Z,97284.69
2022-11-20T07:20:47.083Z,97285.41
2022-11-20T07:23:49.253Z,97279.09
2022-11-20T07:26:51.358Z,97284.09
2022-11-20T07:29:53.477Z,97290.78
2022-11-20T07:32:56.670Z,97290.66
2022-11-20T07:36:01.208Z,97281.06
2022-11-20T07:39:03.328Z,97294.81
2022-11-20T07:42:05.630Z,97305.88
2022-11-20T07:45:08.788Z,97302.38
2022-11-20T07:48:11.195Z,97308.34
2022-11-20T07:51:14.649Z,97312.63
2022-11-20T07:54:16.697Z,97314.25
2022-11-20T07:57:18.798Z,97314.16
2022-11-20T08:00:20.892Z,97315.66
2022-11-20T08:03:25.184Z,97312.16
2022-11-20T08:06:27.983Z,97310.41
2022-11-20T08:09:30.195Z,97305.81
2022-11-20T08:12:50.795Z,97304.00
2022-11-20T08:15:52.952Z,97303.16
2022-11-20T08:18:55.285Z,97309.19
2022-11-20T08:21:57.322Z,97313.59
2022-11-20T08:24:59.376Z,97314.44
2022-11-20T08:28:19.851Z,97317.69
2022-11-20T08:31:24.403Z,97326.94
2022-11-20T08:34:26.474Z,97317.94
2022-11-20T08:37:28.572Z,97328.59
2022-11-20T08:40:30.658Z,97319.53
2022-11-20T08:43:32.799Z,97319.53
2022-11-20T08:46:40.506Z,97323.94
2022-11-20T08:49:42.622Z,97325.56
2022-11-20T08:52:45.356Z,97330.69
2022-11-20T08:55:47.662Z,97325.44
2022-11-20T09:02:13.621Z,97317.06
2022-11-20T09:05:15.751Z,97316.00
2022-11-20T09:08:17.793Z,97316.25
2022-11-20T09:11:19.848Z,97315.63
2022-11-20T09:14:22.563Z,97315.03
2022-11-20T09:17:24.655Z,97309.72
2022-11-20T09:20:28.178Z,97309.16
2022-11-20T09:23:35.287Z,97299.34
2022-11-20T09:26:37.324Z,97296.91
2022-11-20T09:29:39.542Z,97294.03
2022-11-20T09:32:42.276Z,97298.34
2022-11-20T09:35:45.528Z,97303.31
2022-11-20T09:38:48.459Z,97298.19
2022-11-20T09:41:53.521Z,97292.09
2022-11-20T09:45:06.788Z,97286.09
2022-11-20T09:48:21.382Z,97291.25
2022-11-20T09:51:54.930Z,97285.72
2022-11-20T09:54:57.979Z,97289.59
2022-11-20T09:58:01.042Z,97291.06
2022-11-20T10:01:12.779Z,97281.00
2022-11-20T10:04:19.379Z,97277.06
2022-11-20T10:07:33.143Z,97275.63
2022-11-20T10:11:02.378Z,97266.06
2022-11-20T10:14:30.148Z,97269.59
2022-11-20T10:18:04.995Z,97272.34
2022-11-20T10:21:31.022Z,97266.38
2022-11-20T10:24:35.603Z,97270.50
2022-11-20T10:28:14.927Z,97263.03
2022-11-20T10:31:34.688Z,97261.75
2022-11-20T10:34:43.013Z,97267.50
2022-11-20T10:37:56.827Z,97256.19
2022-11-20T10:41:21.380Z,97264.50
2022-11-20T10:44:47.423Z,97263.56
2022-11-20T10:48:11.527Z,97254.75
2022-11-20T10:51:19.240Z,97257.34
2022-11-20T10:54:41.249Z,97260.81
2022-11-20T10:57:57.841Z,97252.06
2022-11-20T11:01:27.796Z,97253.06
2022-11-20T11:04:30.172Z,97246.25
2022-11-20T11:07:38.013Z,97245.94
2022-11-20T11:11:09.557Z,97233.31
2022-11-20T11:14:14.531Z,97234.09
2022-11-20T11:17:35.618Z,97228.94
2022-11-20T11:20:38.252Z,97232.06
2022-11-20T11:23:44.221Z,97232.88
2022-11-20T11:26:57.508Z,97234.63
2022-11-20T11:30:14.369Z,97227.97
2022-11-20T11:33:29.030Z,97223.94
2022-11-20T11:36:31.634Z,97227.63
2022-11-20T11:39:35.215Z,97227.44
2022-11-20T11:42:47.949Z,97215.16
2022-11-20T11:45:57.332Z,97218.50
2022-11-20T11:49:06.584Z,97212.75
2022-11-20T11:52:18.067Z,97201.47
2022-11-20T11:55:58.254Z,97196.13
2022-11-20T11:59:07.528Z,97183.97
2022-11-20T12:02:30.625Z,97183.94
2022-11-20T12:05:41.340Z,97180.19
2022-11-20T12:08:57.136Z,97180.84
2022-11-20T12:12:24.139Z,97178.84
2022-11-20T12:15:35.618Z,97174.03
2022-11-20T12:18:39.337Z,97177.97
2022-11-20T12:22:15.519Z,97179.75
2022-11-20T12:25:37.359Z,97183.47
2022-11-20T12:28:59.464Z,97188.34
2022-11-20T12:32:11.333Z,97185.53
2022-11-20T12:35:43.335Z,97186.69
2022-11-20T12:39:01.265Z,97187.41
2022-11-20T12:42:40.664Z,97177.81
2022-11-20T12:46:02.196Z,97170.09
2022-11-20T12:49:20.012Z,97170.13
2022-11-20T12:52:40.875Z,97171.16
2022-11-20T12:56:05.809Z,97170.13
2022-11-20T12:59:18.111Z,97173.81
2022-11-20T13:02:20.783Z,97176.34
2022-11-20T13:05:33.850Z,97178.22
2022-11-20T13:08:40.159Z,97182.28
2022-11-20T13:12:09.760Z,97181.94
2022-11-20T13:15:44.913Z,97179.53
2022-11-20T13:18:49.080Z,97175.38
2022-11-20T13:21:52.169Z,97181.25
2022-11-20T13:24:55.140Z,97186.50
2022-11-20T13:28:00.004Z,97176.25
2022-11-20T13:31:02.370Z,97173.41
2022-11-20T13:34:07.790Z,97179.78
2022-11-20T13:37:27.926Z,97174.78
2022-11-20T13:40:30.400Z,97172.38
2022-11-20T13:43:38.844Z,97158.75
2022-11-20T13:46:48.745Z,97163.28
2022-11-20T13:49:53.393Z,97153.75
2022-11-20T13:53:34.477Z,97155.28
2022-11-20T13:56:53.246Z,97152.16
2022-11-20T13:59:59.739Z,97160.00
2022-11-20T14:03:13.814Z,97155.72
2022-11-20T14:06:34.263Z,97158.22
2022-11-20T14:09:37.561Z,97156.22
2022-11-20T14:12:40.494Z,97151.00
2022-11-20T14:15:45.765Z,97160.72
2022-11-20T14:18:48.799Z,97145.75
2022-11-20T14:21:55.780Z,97149.16
2022-11-20T14:25:08.683Z,97149.00
2022-11-20T14:28:41.689Z,97145.81
2022-11-20T14:31:49.968Z,97151.69
2022-11-20T14:35:10.275Z,97146.53
2022-11-20T14:38:18.917Z,97146.09
2022-11-20T14:41:27.966Z,97149.06
2022-11-20T14:44:38.804Z,97147.81
2022-11-20T14:47:42.947Z,97152.88
2022-11-20T14:50:46.350Z,97149.56
2022-11-20T14:53:49.241Z,97156.50
2022-11-20T14:57:03.895Z,97156.72
2022-11-20T15:00:23.121Z,97157.13
2022-11-20T15:03:40.595Z,97145.94
2022-11-20T15:06:54.129Z,97152.25
2022-11-20T15:10:42.393Z,97146.44
2022-11-20T15:13:44.862Z,97149.03
2022-11-20T15:16:47.729Z,97147.34
2022-11-20T15:19:50.630Z,97142.78
2022-11-20T15:22:53.374Z,97140.13
2022-11-20T15:25:57.505Z,97139.88
2022-11-20T15:29:00.752Z,97141.31
2022-11-20T15:32:06.885Z,97139.34
2022-11-20T15:35:12.487Z,97142.31
2022-11-20T15:38:15.363Z,97148.06
2022-11-20T15:41:18.333Z,97148.50
2022-11-20T15:44:21.270Z,97140.16
2022-11-20T15:47:29.020Z,97140.53
2022-11-20T15:50:44.087Z,97146.88
2022-11-20T15:53:51.527Z,97150.59
2022-11-20T15:56:54.489Z,97155.19
2022-11-20T15:59:58.936Z,97155.38
2022-11-20T16:03:02.125Z,97167.75
2022-11-20T16:06:04.779Z,97160.25
2022-11-20T16:09:10.269Z,97160.47
2022-11-20T16:12:33.160Z,97151.91
2022-11-20T16:15:48.447Z,97152.22
2022-11-20T16:18:52.333Z,97146.44
2022-11-20T16:22:01.192Z,97145.91
2022-11-20T16:25:06.243Z,97147.13
2022-11-20T16:28:14.666Z,97145.69
2022-11-20T16:31:21.506Z,97144.16
2022-11-20T16:34:25.163Z,97156.47
2022-11-20T16:37:28.711Z,97149.06
2022-11-20T16:40:31.993Z,97155.28
2022-11-20T16:43:35.208Z,97153.81
2022-11-20T16:46:41.476Z,97158.22
2022-11-20T16:49:44.580Z,97166.13
2022-11-20T16:52:47.527Z,97159.91
2022-11-20T16:55:50.826Z,97165.81
2022-11-20T16:58:56.973Z,97156.28
2022-11-20T17:02:00.099Z,97164.13
2022-11-20T17:05:03.359Z,97157.44
2022-11-20T17:08:06.994Z,97166.28
2022-11-20T17:11:11.854Z,97158.63
2022-11-20T17:14:14.642Z,97157.84
2022-11-20T17:17:17.500Z,97163.03
2022-11-20T17:20:23.180Z,97155.47
2022-11-20T17:23:31.322Z,97151.25
2022-11-20T17:26:35.906Z,97145.44
2022-11-20T17:29:42.218Z,97141.31
2022-11-20T17:32:47.684Z,97132.75
2022-11-20T17:35:52.720Z,97138.84
2022-11-20T17:38:56.138Z,97149.00
2022-11-20T17:42:18.382Z,97151.66
2022-11-20T17:45:21.484Z,97153.28
2022-11-20T17:48:24.716Z,97153.00
2022-11-20T17:51:30.110Z,97150.91
2022-11-20T17:54:33.729Z,97136.03
2022-11-20T17:57:57.148Z,97144.53
2022-11-20T18:01:06.422Z,97147.00
2022-11-20T18:04:09.953Z,97149.53
2022-11-20T18:07:12.764Z,97140.97
2022-11-20T18:10:17.017Z,97134.91
2022-11-20T18:13:19.837Z,97140.97
2022-11-20T18:16:22.832Z,97132.38
2022-11-20T18:19:32.121Z,97127.97
2022-11-20T18:22:36.250Z,97129.72
2022-11-20T18:25:40.979Z,97133.22
2022-11-20T18:28:46.715Z,97132.31
2022-11-20T18:31:50.251Z,97130.56
2022-11-20T18:34:53.733Z,97129.66
2022-11-20T18:37:56.370Z,97121.22
2022-11-20T18:41:03.926Z,97124.75
2022-11-20T18:44:32.333Z,97112.72
2022-11-20T18:47:38.661Z,97113.53
2022-11-20T18:50:41.960Z,97114.44
2022-11-20T18:53:47.692Z,97107.47
2022-11-20T18:56:51.376Z,97106.47
2022-11-20T19:00:07.893Z,97092.72
2022-11-20T19:03:12.348Z,97098.00
2022-11-20T19:06:15.044Z,97096.56
2022-11-20T19:09:20.568Z,97106.31
2022-11-20T19:12:25.156Z,97109.09
2022-11-20T19:15:28.458Z,97108.41
2022-11-20T19:18:31.714Z,97099.81
2022-11-20T19:21:35.822Z,97093.84
2022-11-20T19:24:43.380Z,97094.75
2022-11-20T19:27:46.484Z,97094.94
2022-11-20T19:30:49.306Z,97089.97
2022-11-20T19:33:56.577Z,97109.84
2022-11-20T19:37:01.253Z,97103.00
2022-11-20T19:40:06.028Z,97098.72
2022-11-20T19:43:12.793Z,97105.78
2022-11-20T19:46:17.513Z,97106.81
2022-11-20T19:49:20.872Z,97100.03
2022-11-20T19:52:23.912Z,97102.75
2022-11-20T19:55:27.439Z,97099.34
2022-11-20T19:58:31.723Z,97090.72
2022-11-20T20:01:36.024Z,97095.91
2022-11-20T20:04:39.329Z,97102.75
2022-11-20T20:07:42.730Z,97101.72
2022-11-20T20:10:45.527Z,97107.53
2022-11-20T20:13:48.982Z,97118.41
2022-11-20T20:16:52.776Z,97115.53
2022-11-20T20:19:55.745Z,97111.00
2022-11-20T20:22:59.000Z,97120.97
2022-11-20T20:26:05.077Z,97112.84
2022-11-20T20:29:08.254Z,97115.28
2022-11-20T20:32:13.031Z,97125.44
2022-11-20T20:35:17.406Z,97127.69
2022-11-20T20:38:22.895Z,97122.28
2022-11-20T20:41:25.704Z,97128.38
2022-11-20T20:44:46.867Z,97116.50
2022-11-20T20:47:49.634Z,97126.09
2022-11-20T20:51:04.437Z,97126.88
2022-11-20T20:54:07.266Z,97126.09
2022-11-20T20:57:10.498Z,97127.00
2022-11-20T21:00:15.117Z,97125.25
2022-11-20T21:03:19.246Z,97124.19
2022-11-20T21:06:21.759Z,97121.47
2022-11-20T21:09:24.856Z,97121.25
2022-11-20T21:12:27.660Z,97109.03
2022-11-20T21:15:30.515Z,97112.34
2022-11-20T21:18:34.661Z,97105.41
2022-11-20T21:21:56.675Z,97098.59
2022-11-20T21:24:59.724Z,97090.84
2022-11-20T21:28:03.436Z,97090.84
2022-11-20T21:31:08.501Z,97089.88
2022-11-20T21:34:13.420Z,97089.03
2022-11-20T21:37:15.832Z,97091.63
2022-11-20T21:40:18.239Z,97098.41
2022-11-20T21:43:20.483Z,97093.91
2022-11-20T21:46:22.880Z,97095.47
2022-11-20T21:49:25.383Z,97104.78
2022-11-20T21:52:27.732Z,97103.72
2022-11-20T21:55:29.833Z,97105.25
2022-11-20T21:58:32.196Z,97103.28
2022-11-20T22:01:35.063Z,97103.97
2022-11-20T22:04:37.157Z,97100.34
2022-11-20T22:07:44.687Z,97117.34
2022-11-20T22:10:55.078Z,97104.19
2022-11-20T22:14:15.915Z,97105.69
2022-11-20T22:17:37.972Z,97104.66
2022-11-20T22:20:41.146Z,97103.56
2022-11-20T22:23:43.307Z,97109.38
2022-11-20T22:26:45.821Z,97108.41
2022-11-20T22:29:47.948Z,97103.88
2022-11-20T22:32:50.506Z,97105.44
2022-11-20T22:35:52.533Z,97099.25
2022-11-20T22:38:55.534Z,97097.47
2022-11-20T22:41:57.608Z,97097.47
2022-11-20T22:44:59.631Z,97096.03
2022-11-20T22:48:01.737Z,97090.31
2022-11-20T22:51:17.538Z,97088.16
2022-11-20T22:54:19.659Z,97084.09
2022-11-20T22:57:21.704Z,97080.19
2022-11-20T23:00:23.901Z,97091.72
2022-11-20T23:03:26.116Z,97089.41
2022-11-20T23:06:28.761Z,97079.19
2022-11-20T23:09:30.939Z,97086.34
2022-11-20T23:12:33.020Z,97078.94
2022-11-20T23:15:35.599Z,97074.91
2022-11-20T23:18:38.508Z,97065.63
2022-11-20T23:21:42.224Z,97062.38
2022-11-20T23:24:44.265Z,97064.50
2022-11-20T23:27:46.338Z,97057.81
2022-11-20T23:30:48.350Z,97054.44
2022-11-20T23:33:50.949Z,97058.22
2022-11-20T23:36:52.952Z,97054.94
2022-11-20T23:39:55.092Z,97062.00
2022-11-20T23:43:15.192Z,97055.28
2022-11-20T23:46:17.413Z,97064.03
2022-11-20T23:49:19.429Z,97067.72
2022-11-20T23:52:22.412Z,97067.72
2022-11-20T23:55:24.473Z,97072.28
2022-11-20T23:58:35.344Z,97066.38
